createdAt,value
2023-02-19T00:01:41.927Z,10.27
2023-02-19T00:04:14.145Z,6.18
2023-02-19T00:06:41.653Z,7.88
2023-02-19T00:09:08.046Z,6.97
2023-02-19T00:11:35.201Z,7.88
2023-02-19T00:14:02.856Z,9.20
2023-02-19T00:16:31.929Z,7.57
2023-02-19T00:18:59.924Z,6.85
2023-02-19T00:21:26.990Z,6.88
2023-02-19T00:23:59.242Z,9.07
2023-02-19T00:26:26.393Z,6.65
2023-02-19T00:28:54.004Z,7.82
2023-02-19T00:31:22.337Z,10.20
2023-02-19T00:33:51.906Z,7.25
2023-02-19T00:36:18.407Z,7.45
2023-02-19T00:38:44.990Z,6.93
2023-02-19T00:41:19.319Z,5.85
2023-02-19T00:43:54.526Z,7.70
2023-02-19T00:46:29.832Z,7.00
2023-02-19T00:48:57.024Z,7.15
2023-02-19T00:51:26.996Z,6.25
2023-02-19T00:53:54.119Z,8.00
2023-02-19T00:56:21.049Z,8.95
2023-02-19T00:58:48.147Z,6.95
2023-02-19T01:01:14.808Z,8.60
2023-02-19T01:03:42.183Z,5.43
2023-02-19T01:06:58.645Z,7.28
2023-02-19T01:09:24.920Z,7.53
2023-02-19T01:11:51.221Z,5.07
2023-02-19T01:14:17.544Z,5.07
2023-02-19T01:16:43.837Z,5.15
2023-02-19T01:19:10.207Z,5.88
2023-02-19T01:21:36.578Z,6.18
2023-02-19T01:24:03.049Z,5.93
2023-02-19T01:26:32.233Z,6.45
2023-02-19T01:29:02.141Z,5.72
2023-02-19T01:31:29.300Z,4.85
2023-02-19T01:33:58.718Z,4.72
2023-02-19T01:36:26.197Z,4.88
2023-02-19T01:38:52.587Z,5.78
2023-02-19T01:41:22.756Z,5.22
2023-02-19T01:44:27.466Z,4.65
2023-02-19T01:46:58.581Z,5.68
2023-02-19T01:49:29.086Z,4.50
2023-02-19T01:52:25.575Z,5.75
2023-02-19T01:54:54.646Z,4.45
2023-02-19T01:57:25.233Z,6.35
2023-02-19T01:59:56.934Z,4.70
2023-02-19T02:02:25.038Z,5.50
2023-02-19T02:04:52.115Z,4.93
2023-02-19T02:07:37.152Z,3.70
2023-02-19T02:10:22.034Z,5.20
2023-02-19T02:12:49.729Z,6.00
2023-02-19T02:15:17.523Z,7.03
2023-02-19T02:18:02.368Z,4.78
2023-02-19T02:21:06.349Z,5.43
2023-02-19T02:23:54.607Z,4.90
2023-02-19T02:26:31.196Z,4.75
2023-02-19T02:29:03.516Z,5.93
2023-02-19T02:31:42.157Z,4.88
2023-02-19T02:34:18.488Z,5.75
2023-02-19T02:36:49.729Z,5.18
2023-02-19T02:39:20.914Z,4.65
2023-02-19T02:42:15.177Z,4.68
2023-02-19T02:44:42.360Z,6.05
2023-02-19T02:47:30.489Z,4.35
2023-02-19T02:50:07.575Z,5.40
2023-02-19T02:52:56.481Z,4.40
2023-02-19T02:55:24.546Z,5.68
2023-02-19T02:57:51.274Z,6.38
2023-02-19T03:00:18.306Z,5.78
2023-02-19T03:02:44.673Z,4.43
2023-02-19T03:05:43.061Z,4.45
2023-02-19T03:08:15.142Z,3.90
2023-02-19T03:10:48.332Z,5.30
2023-02-19T03:13:54.290Z,3.78
2023-02-19T03:16:49.172Z,4.65
2023-02-19T03:19:19.284Z,4.63
2023-02-19T03:22:10.132Z,3.97
2023-02-19T03:25:06.498Z,3.90
2023-02-19T03:27:34.222Z,4.13
2023-02-19T03:30:07.885Z,4.00
2023-02-19T03:32:40.006Z,3.17
2023-02-19T03:35:11.513Z,4.07
2023-02-19T03:38:01.446Z,3.83
2023-02-19T03:40:31.015Z,3.30
2023-02-19T03:43:15.747Z,4.88
2023-02-19T03:45:48.002Z,5.40
2023-02-19T03:48:20.029Z,3.53
2023-02-19T03:51:08.373Z,2.72
2023-02-19T03:53:52.859Z,3.08
2023-02-19T03:56:31.969Z,3.10
2023-02-19T03:59:28.892Z,3.45
2023-02-19T04:02:03.452Z,2.33
2023-02-19T04:04:32.616Z,2.73
2023-02-19T04:06:59.235Z,3.95
2023-02-19T04:09:30.957Z,2.08
2023-02-19T04:11:58.496Z,2.47
2023-02-19T04:14:29.514Z,4.57
2023-02-19T04:17:02.932Z,2.28
2023-02-19T04:19:33.393Z,2.30
2023-02-19T04:22:01.451Z,2.35
2023-02-19T04:24:38.905Z,4.65
2023-02-19T04:27:06.533Z,2.92
2023-02-19T04:29:32.889Z,3.47
2023-02-19T04:31:59.353Z,2.88
2023-02-19T04:34:25.745Z,2.25
2023-02-19T04:36:52.117Z,2.78
2023-02-19T04:39:18.481Z,2.53
2023-02-19T04:41:44.897Z,2.28
2023-02-19T04:44:11.214Z,2.10
2023-02-19T04:46:37.619Z,3.20
2023-02-19T04:49:03.971Z,1.85
2023-02-19T04:51:30.371Z,1.70
2023-02-19T04:53:56.761Z,1.98
2023-02-19T04:56:23.159Z,3.00
2023-02-19T04:58:49.484Z,1.88
2023-02-19T05:01:15.870Z,1.85
2023-02-19T05:03:42.497Z,3.05
2023-02-19T05:06:12.111Z,2.92
2023-02-19T05:08:39.151Z,2.90
2023-02-19T05:11:08.275Z,2.03
2023-02-19T05:13:34.919Z,3.00
2023-02-19T05:16:04.485Z,2.85
2023-02-19T05:18:31.833Z,2.55
2023-02-19T05:20:59.423Z,3.67
2023-02-19T05:23:26.936Z,2.70
2023-02-19T05:25:53.458Z,2.40
2023-02-19T05:28:20.951Z,2.63
2023-02-19T05:30:49.775Z,2.22
2023-02-19T05:33:17.731Z,3.15
2023-02-19T05:35:46.075Z,1.85
2023-02-19T05:38:12.866Z,3.47
2023-02-19T05:40:39.944Z,1.60
2023-02-19T05:43:07.649Z,2.05
2023-02-19T05:45:35.549Z,2.05
2023-02-19T05:48:03.030Z,3.15
2023-02-19T05:50:31.119Z,2.20
2023-02-19T05:53:00.993Z,1.88
2023-02-19T05:55:28.796Z,1.55
2023-02-19T05:57:55.530Z,1.67
2023-02-19T06:00:22.259Z,1.65
2023-02-19T06:02:48.617Z,1.33
2023-02-19T06:05:15.113Z,1.73
2023-02-19T06:07:42.815Z,2.00
2023-02-19T06:10:11.141Z,1.30
2023-02-19T06:12:38.521Z,1.88
2023-02-19T06:15:07.924Z,2.53
2023-02-19T06:17:34.456Z,1.13
2023-02-19T06:20:01.150Z,0.68
2023-02-19T06:22:27.998Z,1.35
2023-02-19T06:24:54.440Z,1.10
2023-02-19T06:27:20.856Z,0.93
2023-02-19T06:29:47.302Z,0.80
2023-02-19T06:32:13.796Z,2.63
2023-02-19T06:34:40.419Z,1.48
2023-02-19T06:37:06.750Z,1.23
2023-02-19T06:39:33.034Z,1.45
2023-02-19T06:41:59.373Z,1.30
2023-02-19T06:44:25.859Z,2.30
2023-02-19T06:46:55.272Z,1.20
2023-02-19T06:49:21.827Z,1.88
2023-02-19T06:51:48.318Z,2.70
2023-02-19T06:54:14.694Z,3.53
2023-02-19T06:56:41.841Z,1.08
2023-02-19T06:59:11.501Z,1.90
2023-02-19T07:01:38.565Z,1.30
2023-02-19T07:04:05.916Z,1.80
2023-02-19T07:06:33.502Z,2.78
2023-02-19T07:09:00.293Z,1.95
2023-02-19T07:11:30.011Z,2.47
2023-02-19T07:13:57.978Z,2.20
2023-02-19T07:16:25.353Z,1.75
2023-02-19T07:18:52.248Z,4.45
2023-02-19T07:21:19.201Z,2.03
2023-02-19T07:23:45.652Z,1.48
2023-02-19T07:26:13.901Z,1.65
2023-02-19T07:28:41.070Z,3.17
2023-02-19T07:31:07.427Z,8.35
2023-02-19T07:33:33.729Z,2.25
2023-02-19T07:36:00.044Z,4.53
2023-02-19T07:38:27.266Z,3.92
2023-02-19T07:40:55.596Z,1.55
2023-02-19T07:43:23.296Z,3.97
2023-02-19T07:45:49.970Z,2.40
2023-02-19T07:48:16.949Z,3.45
2023-02-19T07:50:51.936Z,2.28
2023-02-19T07:53:18.503Z,1.83
2023-02-19T07:55:45.033Z,1.63
2023-02-19T07:58:15.896Z,1.38
2023-02-19T08:00:42.660Z,1.50
2023-02-19T08:08:50.821Z,1.73
2023-02-19T08:11:35.738Z,2.83
2023-02-19T08:14:02.014Z,5.53
2023-02-19T08:16:41.987Z,3.90
2023-02-19T08:19:08.758Z,3.30
2023-02-19T08:21:35.080Z,4.03
2023-02-19T08:24:01.436Z,4.47
2023-02-19T08:26:27.766Z,3.33
2023-02-19T08:28:54.105Z,3.33
2023-02-19T08:31:20.558Z,4.63
2023-02-19T08:33:46.945Z,2.65
2023-02-19T08:36:13.358Z,2.38
2023-02-19T08:38:39.767Z,4.28
2023-02-19T08:41:09.205Z,2.40
2023-02-19T08:43:36.412Z,3.42
2023-02-19T08:46:03.346Z,6.10
2023-02-19T08:48:30.179Z,2.88
2023-02-19T08:50:58.339Z,3.45
2023-02-19T08:53:25.425Z,2.47
2023-02-19T08:55:52.757Z,4.28
2023-02-19T08:58:19.203Z,3.35
2023-02-19T09:00:45.617Z,1.95
2023-02-19T09:03:11.983Z,3.17
2023-02-19T09:05:39.009Z,1.73
2023-02-19T09:08:05.364Z,5.45
2023-02-19T09:10:31.707Z,3.63
2023-02-19T09:12:57.995Z,3.25
2023-02-19T09:15:24.374Z,2.75
2023-02-19T09:17:52.611Z,2.25
2023-02-19T09:20:19.271Z,2.00
2023-02-19T09:22:45.846Z,4.32
2023-02-19T09:25:12.254Z,5.57
2023-02-19T09:27:38.570Z,3.35
2023-02-19T09:30:06.166Z,2.30
2023-02-19T09:32:33.360Z,2.33
2023-02-19T09:34:59.687Z,4.63
2023-02-19T09:37:27.511Z,3.35
2023-02-19T09:39:54.783Z,3.15
2023-02-19T09:42:29.794Z,3.33
2023-02-19T09:44:59.219Z,5.32
2023-02-19T09:47:28.752Z,3.42
2023-02-19T09:50:00.844Z,7.10
2023-02-19T09:52:40.623Z,3.53
2023-02-19T09:55:17.632Z,3.90
2023-02-19T09:57:45.317Z,2.97
2023-02-19T10:00:11.921Z,4.85
2023-02-19T10:02:39.095Z,4.90
2023-02-19T10:05:14.547Z,3.22
2023-02-19T10:10:14.564Z,4.05
2023-02-19T10:12:50.430Z,4.10
2023-02-19T10:15:31.971Z,3.72
2023-02-19T10:17:58.715Z,4.20
2023-02-19T10:20:27.770Z,2.53
2023-02-19T10:23:15.670Z,3.35
2023-02-19T10:25:48.456Z,3.72
2023-02-19T10:28:18.956Z,5.03
2023-02-19T10:30:51.104Z,4.43
2023-02-19T10:33:17.476Z,4.70
2023-02-19T10:36:00.352Z,5.57
2023-02-19T10:38:28.237Z,3.97
2023-02-19T10:41:13.709Z,3.22
2023-02-19T10:43:45.185Z,5.13
2023-02-19T10:46:24.205Z,3.08
2023-02-19T10:48:57.904Z,3.15
2023-02-19T10:51:34.826Z,2.20
2023-02-19T10:54:32.572Z,4.30
2023-02-19T10:57:19.646Z,7.07
2023-02-19T11:00:15.185Z,3.03
2023-02-19T11:02:45.337Z,5.43
2023-02-19T11:05:20.777Z,3.03
2023-02-19T11:10:27.893Z,5.68
2023-02-19T11:13:00.728Z,3.33
2023-02-19T11:15:37.253Z,6.72
2023-02-19T11:18:12.392Z,4.43
2023-02-19T11:21:00.605Z,4.57
2023-02-19T11:23:30.401Z,3.25
2023-02-19T11:26:00.980Z,4.78
2023-02-19T11:28:38.387Z,4.22
2023-02-19T11:31:19.861Z,3.53
2023-02-19T11:33:55.528Z,5.70
2023-02-19T11:36:34.019Z,6.10
2023-02-19T11:39:15.667Z,3.30
2023-02-19T11:42:19.438Z,3.55
2023-02-19T11:45:13.051Z,3.67
2023-02-19T11:47:53.205Z,4.90
2023-02-19T11:50:44.433Z,3.13
2023-02-19T11:53:31.926Z,4.38
2023-02-19T11:56:11.423Z,5.90
2023-02-19T11:58:55.171Z,2.58
2023-02-19T12:01:39.668Z,2.20
2023-02-19T12:04:30.994Z,3.47
2023-02-19T12:07:23.135Z,4.80
2023-02-19T12:10:13.073Z,4.20
2023-02-19T12:12:48.410Z,3.63
2023-02-19T12:15:31.885Z,5.70
2023-02-19T12:18:13.451Z,6.90
2023-02-19T12:20:51.843Z,3.30
2023-02-19T12:24:02.257Z,7.20
2023-02-19T12:26:43.542Z,6.18
2023-02-19T12:29:23.076Z,4.13
2023-02-19T12:32:13.325Z,4.80
2023-02-19T12:34:50.053Z,4.90
2023-02-19T12:37:48.607Z,4.75
2023-02-19T12:40:37.204Z,3.00
2023-02-19T12:43:13.597Z,2.25
2023-02-19T12:46:06.361Z,4.25
2023-02-19T12:48:42.861Z,3.55
2023-02-19T12:51:19.282Z,4.80
2023-02-19T12:54:14.870Z,3.22
2023-02-19T12:56:53.506Z,3.50
2023-02-19T12:59:33.689Z,2.55
2023-02-19T13:02:10.608Z,4.75
2023-02-19T13:05:01.409Z,4.72
2023-02-19T13:07:58.305Z,3.38
2023-02-19T13:10:41.125Z,3.58
2023-02-19T13:13:15.861Z,2.85
2023-02-19T13:15:50.083Z,4.60
2023-02-19T13:18:22.878Z,2.85
2023-02-19T13:20:51.758Z,3.70
2023-02-19T13:23:42.231Z,3.33
2023-02-19T13:26:38.718Z,3.85
2023-02-19T13:29:08.015Z,2.22
2023-02-19T13:32:11.945Z,4.60
2023-02-19T13:34:54.912Z,4.18
2023-02-19T13:37:22.360Z,3.97
2023-02-19T13:39:50.987Z,3.97
2023-02-19T13:42:36.000Z,3.45
2023-02-19T13:45:05.026Z,2.50
2023-02-19T13:47:49.817Z,5.80
2023-02-19T13:50:25.624Z,3.35
2023-02-19T13:52:54.444Z,2.58
2023-02-19T13:55:46.755Z,3.38
2023-02-19T13:58:50.400Z,3.90
2023-02-19T14:01:18.371Z,3.45
2023-02-19T14:04:07.902Z,10.55
2023-02-19T14:07:05.141Z,2.20
2023-02-19T14:09:34.539Z,5.15
2023-02-19T14:12:04.860Z,4.30
2023-02-19T14:14:35.810Z,3.42
2023-02-19T14:17:25.589Z,2.15
2023-02-19T14:20:15.297Z,2.03
2023-02-19T14:22:57.448Z,2.08
2023-02-19T14:25:33.182Z,2.05
2023-02-19T14:28:27.361Z,1.80
2023-02-19T14:31:01.087Z,2.70
2023-02-19T14:33:34.063Z,3.10
2023-02-19T14:36:06.074Z,3.75
2023-02-19T14:38:38.308Z,2.30
2023-02-19T14:41:06.546Z,1.70
2023-02-19T14:43:34.857Z,1.45
2023-02-19T14:46:07.837Z,2.28
2023-02-19T14:48:45.810Z,1.73
2023-02-19T14:51:25.512Z,2.35
2023-02-19T14:53:53.986Z,1.08
2023-02-19T14:56:27.767Z,1.58
2023-02-19T14:59:13.619Z,2.65
2023-02-19T15:04:06.829Z,1.48
2023-02-19T15:06:35.609Z,1.52
2023-02-19T15:09:05.782Z,2.13
2023-02-19T15:11:34.767Z,2.22
2023-02-19T15:14:05.010Z,3.08
2023-02-19T15:16:34.073Z,2.60
2023-02-19T15:19:00.729Z,3.88
2023-02-19T15:21:30.390Z,2.78
2023-02-19T15:24:02.778Z,2.17
2023-02-19T15:26:41.485Z,3.30
2023-02-19T15:29:15.026Z,2.53
2023-02-19T15:31:57.800Z,4.50
2023-02-19T15:34:25.348Z,4.68
2023-02-19T15:37:00.331Z,3.00
2023-02-19T15:39:34.693Z,3.60
2023-02-19T15:42:03.591Z,3.38
2023-02-19T15:44:32.872Z,2.47
2023-02-19T15:47:06.007Z,5.32
2023-02-19T15:49:49.228Z,2.75
2023-02-19T15:52:33.324Z,4.07
2023-02-19T15:55:24.552Z,5.05
2023-02-19T15:58:01.220Z,1.80
2023-02-19T16:00:41.342Z,2.45
2023-02-19T16:03:23.765Z,2.95
2023-02-19T16:06:01.234Z,3.55
2023-02-19T16:08:33.357Z,3.33
2023-02-19T16:11:02.758Z,3.35
2023-02-19T16:13:31.801Z,3.10
2023-02-19T16:16:23.422Z,2.67
2023-02-19T16:18:51.461Z,2.95
2023-02-19T16:21:22.717Z,2.25
2023-02-19T16:23:54.523Z,2.90
2023-02-19T16:26:21.742Z,2.78
2023-02-19T16:28:53.197Z,3.28
2023-02-19T16:31:22.285Z,3.17
2023-02-19T16:33:50.352Z,2.78
2023-02-19T16:36:18.109Z,4.07
2023-02-19T16:39:09.379Z,4.10
2023-02-19T16:41:47.742Z,2.47
2023-02-19T16:44:32.375Z,3.13
2023-02-19T16:47:04.703Z,3.53
2023-02-19T16:49:31.460Z,4.07
2023-02-19T16:52:04.277Z,3.72
2023-02-19T16:54:31.228Z,2.50
2023-02-19T16:56:57.543Z,2.90
2023-02-19T16:59:24.330Z,3.22
2023-02-19T17:01:50.679Z,2.75
2023-02-19T17:04:17.047Z,3.25
2023-02-19T17:06:44.328Z,3.13
2023-02-19T17:09:10.682Z,2.97
2023-02-19T17:11:37.126Z,2.42
2023-02-19T17:14:03.466Z,2.45
2023-02-19T17:16:34.114Z,4.05
2023-02-19T17:19:00.567Z,4.97
2023-02-19T17:21:29.000Z,2.47
2023-02-19T17:23:56.647Z,1.90
2023-02-19T17:26:27.669Z,3.17
2023-02-19T17:28:56.878Z,2.67
2023-02-19T17:31:23.225Z,2.85
2023-02-19T17:33:50.400Z,3.53
2023-02-19T17:36:20.009Z,2.55
2023-02-19T17:38:46.530Z,2.42
2023-02-19T17:41:13.034Z,3.70
2023-02-19T17:43:39.502Z,4.40
2023-02-19T17:46:06.182Z,2.50
2023-02-19T17:48:32.564Z,4.15
2023-02-19T17:50:59.153Z,2.53
2023-02-19T17:53:25.530Z,3.10
2023-02-19T17:55:51.886Z,2.95
2023-02-19T17:58:18.252Z,2.35
2023-02-19T18:00:44.642Z,3.75
2023-02-19T18:03:11.103Z,4.30
2023-02-19T18:05:37.436Z,4.40
2023-02-19T18:08:03.868Z,4.45
2023-02-19T18:10:30.449Z,3.70
2023-02-19T18:12:56.821Z,3.78
2023-02-19T18:15:26.724Z,3.80
2023-02-19T18:17:54.356Z,3.53
2023-02-19T18:20:23.694Z,3.50
2023-02-19T18:22:50.113Z,3.15
2023-02-19T18:25:18.097Z,2.97
2023-02-19T18:27:44.592Z,4.07
2023-02-19T18:30:12.108Z,4.35
2023-02-19T18:32:38.737Z,3.55
2023-02-19T18:35:05.506Z,5.30
2023-02-19T18:37:32.853Z,5.15
2023-02-19T18:40:00.135Z,5.75
2023-02-19T18:42:26.609Z,2.97
2023-02-19T18:44:53.111Z,3.45
2023-02-19T18:47:21.520Z,4.63
2023-02-19T18:49:52.214Z,3.63
2023-02-19T18:52:20.963Z,4.65
2023-02-19T18:54:48.336Z,3.47
2023-02-19T18:57:15.570Z,3.15
2023-02-19T18:59:42.989Z,4.30
2023-02-19T19:02:10.561Z,3.38
2023-02-19T19:04:38.509Z,2.72
2023-02-19T19:07:05.842Z,4.97
2023-02-19T19:09:33.173Z,5.03
2023-02-19T19:11:59.970Z,4.82
2023-02-19T19:14:26.294Z,3.63
2023-02-19T19:16:52.678Z,3.40
2023-02-19T19:19:19.788Z,8.13
2023-02-19T19:21:53.280Z,7.53
2023-02-19T19:24:20.782Z,3.13
2023-02-19T19:26:49.021Z,9.95
2023-02-19T19:29:17.142Z,6.47
2023-02-19T19:31:44.004Z,8.70
2023-02-19T19:34:12.005Z,9.98
2023-02-19T19:36:38.338Z,8.82
2023-02-19T19:39:04.988Z,8.43
2023-02-19T19:41:31.782Z,7.68
2023-02-19T19:43:58.207Z,10.57
2023-02-19T19:46:24.586Z,8.50
2023-02-19T19:48:52.712Z,7.15
2023-02-19T19:51:19.375Z,10.35
2023-02-19T19:53:49.558Z,6.10
2023-02-19T19:56:17.193Z,5.63
2023-02-19T19:58:43.611Z,6.82
2023-02-19T20:01:10.337Z,7.45
2023-02-19T20:03:37.491Z,4.93
2023-02-19T20:06:04.050Z,6.90
2023-02-19T20:08:30.373Z,5.90
2023-02-19T20:10:56.734Z,6.63
2023-02-19T20:13:24.409Z,7.13
2023-02-19T20:15:52.172Z,6.07
2023-02-19T20:18:18.797Z,5.65
2023-02-19T20:20:45.150Z,7.03
2023-02-19T20:23:11.443Z,7.28
2023-02-19T20:25:37.769Z,6.30
2023-02-19T20:28:04.239Z,5.85
2023-02-19T20:30:31.078Z,5.25
2023-02-19T20:32:57.722Z,7.32
2023-02-19T20:35:28.359Z,6.43
2023-02-19T20:37:55.589Z,6.50
2023-02-19T20:40:27.169Z,4.43
2023-02-19T20:42:53.874Z,6.65
2023-02-19T20:45:20.357Z,5.68
2023-02-19T20:47:47.818Z,7.03
2023-02-19T20:50:16.976Z,6.78
2023-02-19T20:52:43.477Z,7.57
2023-02-19T20:55:09.925Z,7.47
2023-02-19T20:57:36.784Z,8.13
2023-02-19T21:00:06.175Z,7.93
2023-02-19T21:02:32.580Z,6.75
2023-02-19T21:04:59.078Z,13.93
2023-02-19T21:07:25.762Z,9.02
2023-02-19T21:09:52.905Z,7.88
2023-02-19T21:12:20.910Z,6.82
2023-02-19T21:14:47.403Z,7.85
2023-02-19T21:17:13.886Z,6.47
2023-02-19T21:19:40.528Z,8.70
2023-02-19T21:22:07.125Z,9.13
2023-02-19T21:24:33.504Z,11.95
2023-02-19T21:27:00.026Z,10.85
2023-02-19T21:29:26.930Z,10.85
2023-02-19T21:31:55.507Z,6.20
2023-02-19T21:34:25.129Z,5.60
2023-02-19T21:36:52.127Z,5.70
2023-02-19T21:39:21.113Z,6.90
2023-02-19T21:41:47.702Z,5.25
2023-02-19T21:44:16.644Z,14.55
2023-02-19T21:46:43.587Z,8.13
2023-02-19T21:49:11.385Z,10.52
2023-02-19T21:51:39.626Z,10.60
2023-02-19T21:54:07.416Z,8.77
2023-02-19T21:56:36.567Z,8.52
2023-02-19T21:59:03.518Z,6.88
2023-02-19T22:01:38.417Z,9.10
2023-02-19T22:04:09.935Z,7.20
2023-02-19T22:06:39.028Z,7.40
2023-02-19T22:09:05.402Z,7.20
2023-02-19T22:11:31.821Z,6.25
2023-02-19T22:13:58.408Z,8.02
2023-02-19T22:16:25.046Z,7.72
2023-02-19T22:18:53.564Z,8.90
2023-02-19T22:21:21.715Z,8.02
2023-02-19T22:23:50.213Z,7.13
2023-02-19T22:26:28.226Z,7.95
2023-02-19T22:28:55.080Z,8.27
2023-02-19T22:31:24.131Z,6.13
2023-02-19T22:33:51.390Z,8.65
2023-02-19T22:36:26.171Z,8.35
2023-02-19T22:38:52.784Z,7.03
2023-02-19T22:41:20.303Z,7.45
2023-02-19T22:43:46.881Z,7.93
2023-02-19T22:46:23.972Z,6.72
2023-02-19T22:48:50.974Z,8.02
2023-02-19T22:51:20.148Z,6.88
2023-02-19T22:53:48.097Z,7.93
2023-02-19T22:56:16.254Z,9.43
2023-02-19T22:58:43.038Z,6.13
2023-02-19T23:01:11.246Z,7.47
2023-02-19T23:03:55.173Z,5.78
2023-02-19T23:06:27.435Z,8.35
2023-02-19T23:08:56.415Z,7.57
2023-02-19T23:11:25.481Z,8.05
2023-02-19T23:13:51.909Z,8.98
2023-02-19T23:16:18.317Z,7.50
2023-02-19T23:18:44.761Z,12.23
2023-02-19T23:21:11.587Z,11.32
2023-02-19T23:23:41.058Z,9.05
2023-02-19T23:26:07.552Z,9.73
2023-02-19T23:28:33.899Z,10.30
2023-02-19T23:31:00.682Z,9.02
2023-02-19T23:33:27.068Z,8.70
2023-02-19T23:35:53.413Z,9.70
2023-02-19T23:38:19.752Z,8.45
2023-02-19T23:40:46.071Z,7.28
2023-02-19T23:43:12.401Z,9.00
2023-02-19T23:45:38.717Z,9.52
2023-02-19T23:48:05.158Z,8.32
2023-02-19T23:50:31.532Z,8.07
2023-02-19T23:52:59.179Z,11.35
2023-02-19T23:55:26.320Z,9.77
2023-02-19T23:57:53.522Z,9.10
